createdAt,value
2023-04-15T04:01:08.885Z,9.55
2023-04-15T04:05:11.582Z,14.00
2023-04-15T04:09:14.114Z,15.57
2023-04-15T04:13:17.093Z,15.40
2023-04-15T04:17:21.033Z,17.10
2023-04-15T04:21:23.700Z,14.35
2023-04-15T04:25:27.291Z,16.20
2023-04-15T04:29:29.810Z,12.52
2023-04-15T04:33:33.798Z,16.38
2023-04-15T04:37:36.856Z,13.82
2023-04-15T04:41:39.376Z,11.48
2023-04-15T04:45:41.949Z,12.68
2023-04-15T04:49:45.831Z,17.37
2023-04-15T04:53:48.396Z,12.70
2023-04-15T04:57:51.406Z,14.47
2023-04-15T05:01:54.021Z,14.45
2023-04-15T05:05:58.041Z,13.83
2023-04-15T05:10:00.546Z,14.10
2023-04-15T05:14:03.145Z,14.68
2023-04-15T05:18:05.814Z,12.00
2023-04-15T05:22:09.932Z,11.90
2023-04-15T05:26:12.480Z,13.13
2023-04-15T05:34:18.558Z,10.85
2023-04-15T05:38:22.473Z,12.82
2023-04-15T05:42:25.032Z,12.85
2023-04-15T05:46:27.653Z,10.00
2023-04-15T05:50:30.581Z,12.17
2023-04-15T05:54:34.458Z,15.55
2023-04-15T05:58:36.979Z,15.55
2023-04-15T06:02:39.628Z,16.23
2023-04-15T06:06:42.590Z,13.65
2023-04-15T06:10:46.635Z,14.68
2023-04-15T06:14:49.162Z,15.60
2023-04-15T06:18:51.658Z,12.77
2023-04-15T06:22:54.206Z,13.57
2023-04-15T06:26:58.164Z,14.50
2023-04-15T06:31:01.440Z,13.50
2023-04-15T06:35:04.193Z,12.52
2023-04-15T06:39:06.695Z,14.53
2023-04-15T06:43:10.667Z,13.82
2023-04-15T06:47:14.672Z,13.57
2023-04-15T06:51:17.319Z,15.63
2023-04-15T06:55:19.938Z,14.93
2023-04-15T06:59:24.096Z,12.70
2023-04-15T07:03:27.076Z,15.00
2023-04-15T07:07:29.567Z,12.27
2023-04-15T07:11:32.147Z,13.38
2023-04-15T07:15:36.104Z,10.37
2023-04-15T07:19:39.065Z,12.32
2023-04-15T07:23:41.629Z,12.70
2023-04-15T07:27:44.159Z,11.30
2023-04-15T07:31:47.974Z,10.60
2023-04-15T07:35:50.539Z,10.93
2023-04-15T07:39:53.481Z,7.93
2023-04-15T07:43:55.975Z,9.55
2023-04-15T07:47:59.894Z,7.72
2023-04-15T07:52:02.448Z,9.02
2023-04-15T07:56:05.622Z,10.65
2023-04-15T08:00:09.639Z,10.38
2023-04-15T08:04:19.429Z,9.98
2023-04-15T08:08:22.210Z,8.98
2023-04-15T08:12:25.054Z,7.00
2023-04-15T08:16:28.551Z,7.30
2023-04-15T08:20:32.524Z,7.53
2023-04-15T08:24:35.183Z,6.63
2023-04-15T08:28:40.447Z,9.00
2023-04-15T08:32:43.549Z,8.15
2023-04-15T08:36:47.459Z,6.88
2023-04-15T08:40:50.019Z,6.85
2023-04-15T08:44:53.927Z,6.68
2023-04-15T08:53:01.854Z,6.82
2023-04-15T08:57:04.582Z,7.00
2023-04-15T09:01:07.172Z,6.73
2023-04-15T09:05:10.095Z,8.03
2023-04-15T09:09:15.205Z,7.18
2023-04-15T09:13:17.866Z,6.78
2023-04-15T09:17:21.682Z,6.00
2023-04-15T09:21:25.455Z,3.83
2023-04-15T09:25:32.170Z,4.72
2023-04-15T09:29:36.946Z,4.30
2023-04-15T09:38:04.348Z,5.28
2023-04-15T09:42:08.782Z,3.30
2023-04-15T09:46:11.439Z,4.00
2023-04-15T09:50:14.625Z,4.70
2023-04-15T09:54:20.320Z,4.93
2023-04-15T09:58:26.376Z,4.22
2023-04-15T10:02:31.312Z,5.43
2023-04-15T10:06:35.667Z,5.55
2023-04-15T10:10:38.926Z,5.25
2023-04-15T10:14:44.321Z,5.53
2023-04-15T10:18:48.364Z,5.30
2023-04-15T10:22:52.437Z,4.95
2023-04-15T10:26:55.793Z,4.70
2023-04-15T10:31:00.238Z,5.68
2023-04-15T10:35:04.225Z,6.00
2023-04-15T10:39:42.816Z,3.92
2023-04-15T10:43:57.810Z,3.60
2023-04-15T10:48:03.973Z,6.88
2023-04-15T10:52:09.384Z,5.78
2023-04-15T10:56:13.271Z,5.55
2023-04-15T11:00:17.817Z,6.28
2023-04-15T11:04:55.915Z,5.72
2023-04-15T11:09:02.795Z,4.88
2023-04-15T11:13:17.643Z,9.65
2023-04-15T11:17:29.509Z,6.00
2023-04-15T11:21:32.103Z,9.38
2023-04-15T11:25:37.199Z,7.32
2023-04-15T11:29:41.379Z,7.28
2023-04-15T11:33:48.746Z,6.13
2023-04-15T11:37:51.413Z,6.93
2023-04-15T11:41:53.990Z,6.27
2023-04-15T11:45:59.923Z,7.43
2023-04-15T11:50:16.427Z,6.65
2023-04-15T11:54:20.391Z,7.07
2023-04-15T11:58:24.803Z,11.45
2023-04-15T12:02:33.270Z,9.13
2023-04-15T12:06:37.343Z,10.18
2023-04-15T12:10:39.881Z,10.35
2023-04-15T12:14:42.672Z,5.93
2023-04-15T12:18:48.276Z,9.87
2023-04-15T12:22:50.929Z,10.18
2023-04-15T12:26:55.884Z,9.53
2023-04-15T12:30:59.373Z,8.57
2023-04-15T12:39:06.189Z,10.20
2023-04-15T12:43:08.809Z,5.53
2023-04-15T12:47:12.272Z,7.20
2023-04-15T12:51:16.217Z,7.40
2023-04-15T12:55:18.747Z,6.22
2023-04-15T12:59:21.614Z,6.47
2023-04-15T13:03:24.297Z,8.00
2023-04-15T13:07:28.233Z,7.32
2023-04-15T13:11:33.579Z,8.48
2023-04-15T13:15:36.465Z,7.85
2023-04-15T13:19:39.944Z,5.88
2023-04-15T13:27:46.601Z,6.22
2023-04-15T13:31:49.199Z,10.40
2023-04-15T13:35:51.844Z,9.40
2023-04-15T13:39:55.950Z,6.27
2023-04-15T13:43:58.534Z,6.88
2023-04-15T13:48:01.369Z,6.30
2023-04-15T13:52:04.009Z,7.63
2023-04-15T13:56:09.063Z,9.13
2023-04-15T14:00:12.962Z,9.38
2023-04-15T14:04:15.728Z,11.88
2023-04-15T14:08:18.316Z,14.55
2023-04-15T14:12:22.171Z,17.70
2023-04-15T14:16:24.673Z,16.50
2023-04-15T14:20:27.257Z,24.47
2023-04-15T14:24:29.892Z,27.10
2023-04-15T14:28:33.728Z,29.57
2023-04-15T14:32:36.368Z,28.42
2023-04-15T14:36:40.347Z,32.33
2023-04-15T14:40:43.207Z,27.85
2023-04-15T14:44:47.188Z,31.95
2023-04-15T14:48:50.270Z,30.45
2023-04-15T14:52:52.839Z,30.00
2023-04-15T14:56:55.820Z,32.90
2023-04-15T15:00:59.838Z,32.67
2023-04-15T15:05:02.759Z,28.55
2023-04-15T15:09:05.673Z,28.75
2023-04-15T15:13:09.850Z,24.92
2023-04-15T15:17:14.046Z,25.60
2023-04-15T15:21:16.548Z,27.17
2023-04-15T15:25:19.174Z,29.50
2023-04-15T15:29:21.732Z,29.53
2023-04-15T15:33:25.633Z,26.53
2023-04-15T15:37:28.670Z,25.92
2023-04-15T15:41:33.255Z,28.47
2023-04-15T15:45:36.337Z,30.90
2023-04-15T15:49:41.044Z,25.42
2023-04-15T15:53:44.675Z,24.05
2023-04-15T15:57:47.189Z,26.95
2023-04-15T16:01:50.499Z,29.90
2023-04-15T16:09:56.917Z,26.75
2023-04-15T16:13:59.474Z,25.60
2023-04-15T16:18:02.057Z,26.87
2023-04-15T16:22:06.017Z,26.50
2023-04-15T16:26:08.620Z,25.38
2023-04-15T16:30:12.651Z,23.20
2023-04-15T16:34:15.857Z,24.27
2023-04-15T16:38:19.725Z,23.58
2023-04-15T16:42:22.296Z,22.17
2023-04-15T16:46:24.929Z,26.83
2023-04-15T16:50:27.469Z,23.97
2023-04-15T16:54:33.451Z,26.60
2023-04-15T16:58:35.989Z,24.83
2023-04-15T17:02:38.800Z,20.20
2023-04-15T17:06:41.485Z,20.13
2023-04-15T17:10:45.370Z,19.63
2023-04-15T17:14:47.872Z,19.13
2023-04-15T17:18:51.139Z,17.52
2023-04-15T17:22:53.693Z,16.50
2023-04-15T17:26:57.678Z,18.10
2023-04-15T17:31:00.434Z,22.58
2023-04-15T17:35:05.990Z,18.52
2023-04-15T17:39:08.553Z,19.70
2023-04-15T17:43:12.406Z,20.50
2023-04-15T17:47:15.063Z,16.75
2023-04-15T17:51:17.558Z,18.30
2023-04-15T17:55:22.053Z,17.15
2023-04-15T17:59:26.259Z,16.75
2023-04-15T18:03:28.984Z,15.40
2023-04-15T18:07:31.654Z,19.23
2023-04-15T18:11:34.231Z,13.97
2023-04-15T18:15:38.141Z,13.57
2023-04-15T18:19:40.679Z,11.85
2023-04-15T18:23:43.181Z,12.10
2023-04-15T18:27:45.759Z,12.32
2023-04-15T18:31:49.700Z,11.33
2023-04-15T18:35:52.288Z,12.50
2023-04-15T18:39:55.066Z,11.70
2023-04-15T18:43:57.552Z,12.27
2023-04-15T18:48:01.472Z,12.60
2023-04-15T18:52:04.287Z,13.05
2023-04-15T18:56:07.298Z,14.73
2023-04-15T19:00:11.219Z,13.45
2023-04-15T19:04:15.282Z,14.23
2023-04-15T19:08:17.873Z,15.45
2023-04-15T19:12:20.382Z,18.17
2023-04-15T19:16:22.900Z,18.27
2023-04-15T19:20:26.860Z,20.43
2023-04-15T19:24:31.076Z,23.95
2023-04-15T19:28:35.433Z,22.88
2023-04-15T19:32:37.979Z,23.23
2023-04-15T19:36:41.901Z,22.87
2023-04-15T19:40:44.457Z,23.83
2023-04-15T19:44:46.959Z,21.90
2023-04-15T19:48:49.553Z,22.25
2023-04-15T19:52:53.440Z,24.17
2023-04-15T19:56:56.424Z,22.08
2023-04-15T20:00:59.115Z,23.27
2023-04-15T20:05:01.657Z,32.17
2023-04-15T20:09:06.450Z,32.73
2023-04-15T20:13:09.858Z,35.45
2023-04-15T20:17:12.394Z,32.83
2023-04-15T20:21:14.963Z,34.08
2023-04-15T20:25:18.884Z,32.77
2023-04-15T20:29:21.432Z,38.25
2023-04-15T20:33:25.619Z,30.90
2023-04-15T20:37:29.508Z,24.13
2023-04-15T20:41:33.452Z,21.98
2023-04-15T20:45:36.520Z,21.35
2023-04-15T20:49:40.769Z,26.23
2023-04-15T20:53:43.288Z,23.33
2023-04-15T20:57:48.354Z,24.17
